createdAt,value
2023-10-01T00:00:37.736Z,6.60
2023-10-01T00:03:07.080Z,6.60
2023-10-01T00:05:35.262Z,6.60
2023-10-01T00:08:03.721Z,6.60
2023-10-01T00:10:32.038Z,6.70
2023-10-01T00:13:00.498Z,6.70
2023-10-01T00:15:30.287Z,6.80
2023-10-01T00:18:00.017Z,6.90
2023-10-01T00:20:30.599Z,6.90
2023-10-01T00:23:03.869Z,6.90
2023-10-01T00:25:32.804Z,7.00
2023-10-01T00:28:01.641Z,6.90
2023-10-01T00:30:34.695Z,6.90
2023-10-01T00:33:11.759Z,6.80
2023-10-01T00:35:42.738Z,6.80
2023-10-01T00:38:11.930Z,6.70
2023-10-01T00:40:43.882Z,6.70
2023-10-01T00:43:12.403Z,6.60
2023-10-01T00:45:40.668Z,6.70
2023-10-01T00:48:15.985Z,6.70
2023-10-01T00:50:46.276Z,6.80
2023-10-01T00:53:14.538Z,6.90
2023-10-01T00:55:42.865Z,6.90
2023-10-01T00:58:12.069Z,6.90
2023-10-01T01:00:41.035Z,7.10
2023-10-01T01:03:11.361Z,7.10
2023-10-01T01:05:43.297Z,7.10
2023-10-01T01:08:23.415Z,7.20
2023-10-01T01:10:53.421Z,7.30
2023-10-01T01:13:25.133Z,7.30
2023-10-01T01:15:54.578Z,7.30
2023-10-01T01:18:27.578Z,7.30
2023-10-01T01:21:00.945Z,7.30
2023-10-01T01:23:32.638Z,7.40
2023-10-01T01:26:02.130Z,7.40
2023-10-01T01:28:33.649Z,7.40
2023-10-01T01:31:03.726Z,7.40
2023-10-01T01:33:34.479Z,7.40
2023-10-01T01:36:06.189Z,7.40
2023-10-01T01:38:38.465Z,7.40
2023-10-01T01:41:07.609Z,7.40
2023-10-01T01:43:39.566Z,7.40
2023-10-01T01:46:10.328Z,7.50
2023-10-01T01:48:42.335Z,7.40
2023-10-01T01:51:11.309Z,7.40
2023-10-01T01:53:45.065Z,7.30
2023-10-01T01:56:13.573Z,7.20
2023-10-01T01:58:56.740Z,7.10
2023-10-01T02:01:26.975Z,7.00
2023-10-01T02:03:58.465Z,6.90
2023-10-01T02:06:29.698Z,6.90
2023-10-01T02:09:00.723Z,6.90
2023-10-01T02:11:34.142Z,6.90
2023-10-01T02:14:05.043Z,6.90
2023-10-01T02:16:38.919Z,6.90
2023-10-01T02:19:19.630Z,6.90
2023-10-01T02:21:54.740Z,7.00
2023-10-01T02:24:38.954Z,7.00
2023-10-01T02:27:10.977Z,7.10
2023-10-01T02:29:47.337Z,7.20
2023-10-01T02:32:16.082Z,7.30
2023-10-01T02:34:45.060Z,7.40
2023-10-01T02:37:26.617Z,7.50
2023-10-01T02:39:55.547Z,7.50
2023-10-01T02:42:23.834Z,7.60
2023-10-01T02:44:55.029Z,7.70
2023-10-01T02:47:26.069Z,7.80
2023-10-01T02:49:55.488Z,7.80
2023-10-01T02:52:27.972Z,7.80
2023-10-01T02:54:58.968Z,7.90
2023-10-01T02:57:28.191Z,7.90
2023-10-01T03:00:21.988Z,8.00
2023-10-01T03:02:55.681Z,8.10
2023-10-01T03:05:30.472Z,8.10
2023-10-01T03:08:05.344Z,8.20
2023-10-01T03:10:39.048Z,8.30
2023-10-01T03:13:16.502Z,8.40
2023-10-01T03:15:45.616Z,8.40
2023-10-01T03:18:35.781Z,8.50
2023-10-01T03:21:09.048Z,8.50
2023-10-01T03:23:37.362Z,8.60
2023-10-01T03:26:11.105Z,8.70
2023-10-01T03:28:54.906Z,8.70
2023-10-01T03:31:23.358Z,8.80
2023-10-01T03:33:54.933Z,8.90
2023-10-01T03:36:26.932Z,8.90
2023-10-01T03:38:59.544Z,9.00
2023-10-01T03:41:49.465Z,9.00
2023-10-01T03:44:37.951Z,9.10
2023-10-01T03:47:06.151Z,9.00
2023-10-01T03:49:41.975Z,9.10
2023-10-01T03:52:11.113Z,9.10
2023-10-01T03:54:55.296Z,9.10
2023-10-01T03:57:24.768Z,9.10
2023-10-01T03:59:53.524Z,9.30
2023-10-01T04:02:47.472Z,9.30
2023-10-01T04:05:32.418Z,9.40
2023-10-01T04:08:07.182Z,9.50
2023-10-01T04:10:39.447Z,9.60
2023-10-01T04:13:21.862Z,9.60
2023-10-01T04:15:57.264Z,9.70
2023-10-01T04:18:30.210Z,9.70
2023-10-01T04:21:17.589Z,9.70
2023-10-01T04:23:51.687Z,9.70
2023-10-01T04:26:20.230Z,9.70
2023-10-01T04:28:55.797Z,9.70
2023-10-01T04:31:43.933Z,9.70
2023-10-01T04:34:13.609Z,9.70
2023-10-01T04:36:44.207Z,9.70
2023-10-01T04:39:12.529Z,9.80
2023-10-01T04:41:41.022Z,9.90
2023-10-01T04:44:14.835Z,9.90
2023-10-01T04:46:43.175Z,9.90
2023-10-01T04:49:36.087Z,10.00
2023-10-01T04:52:12.680Z,10.10
2023-10-01T04:54:46.012Z,10.20
2023-10-01T04:57:14.467Z,10.20
2023-10-01T04:59:58.843Z,10.20
2023-10-01T05:02:27.694Z,10.30
2023-10-01T05:05:10.472Z,10.30
2023-10-01T05:07:39.905Z,10.40
2023-10-01T05:10:11.430Z,10.40
2023-10-01T05:12:45.258Z,10.50
2023-10-01T05:15:26.383Z,10.50
2023-10-01T05:17:57.226Z,10.50
2023-10-01T05:20:27.814Z,10.60
2023-10-01T05:23:00.281Z,10.60
2023-10-01T05:25:28.696Z,10.60
2023-10-01T05:27:57.982Z,10.60
2023-10-01T05:30:40.799Z,10.60
2023-10-01T05:33:12.639Z,10.70
2023-10-01T05:35:48.719Z,10.70
2023-10-01T05:38:18.015Z,10.80
2023-10-01T05:40:47.077Z,11.00
2023-10-01T05:43:15.857Z,11.00
2023-10-01T05:45:52.909Z,11.10
2023-10-01T05:48:24.765Z,11.30
2023-10-01T05:50:53.531Z,11.40
2023-10-01T05:53:22.168Z,11.50
2023-10-01T05:55:50.995Z,11.60
2023-10-01T05:58:23.288Z,11.70
2023-10-01T06:00:59.470Z,11.80
2023-10-01T06:03:32.119Z,11.90
2023-10-01T06:05:59.897Z,12.00
2023-10-01T06:08:33.766Z,12.00
2023-10-01T06:11:07.553Z,12.10
2023-10-01T06:13:40.214Z,12.10
2023-10-01T06:16:17.119Z,12.00
2023-10-01T06:18:57.293Z,12.00
2023-10-01T06:21:27.247Z,12.00
2023-10-01T06:23:59.866Z,12.00
2023-10-01T06:26:34.873Z,12.00
2023-10-01T06:29:03.988Z,12.00
2023-10-01T06:31:50.743Z,12.10
2023-10-01T06:34:22.488Z,12.20
2023-10-01T06:36:57.392Z,12.20
2023-10-01T06:39:26.228Z,12.40
2023-10-01T06:41:54.671Z,12.60
2023-10-01T06:44:23.716Z,12.90
2023-10-01T06:46:53.343Z,13.10
2023-10-01T06:49:21.459Z,13.40
2023-10-01T06:51:52.106Z,13.80
2023-10-01T06:54:20.572Z,14.10
2023-10-01T06:56:49.171Z,14.50
2023-10-01T06:59:18.823Z,14.70
2023-10-01T07:01:57.607Z,14.90
2023-10-01T07:04:28.506Z,15.30
2023-10-01T07:06:58.282Z,16.50
2023-10-01T07:09:36.065Z,17.40
2023-10-01T07:12:05.305Z,18.00
2023-10-01T07:14:40.503Z,19.30
2023-10-01T07:17:10.934Z,20.80
2023-10-01T07:19:41.762Z,22.20
2023-10-01T07:22:10.798Z,23.20
2023-10-01T07:24:39.917Z,24.30
2023-10-01T07:27:12.193Z,25.00
2023-10-01T07:29:43.638Z,25.70
2023-10-01T07:32:14.380Z,25.90
2023-10-01T07:34:49.452Z,26.40
2023-10-01T07:37:25.423Z,26.70
2023-10-01T07:39:56.647Z,26.50
2023-10-01T07:42:27.019Z,26.40
2023-10-01T07:44:57.696Z,27.00
2023-10-01T07:47:33.655Z,26.00
2023-10-01T07:50:06.952Z,26.50
2023-10-01T07:52:38.249Z,26.90
2023-10-01T07:55:28.352Z,27.10
2023-10-01T07:58:18.449Z,27.70
2023-10-01T08:00:48.649Z,27.90
2023-10-01T08:03:34.469Z,28.40
2023-10-01T08:06:17.702Z,28.80
2023-10-01T08:08:49.000Z,28.30
2023-10-01T08:11:34.972Z,27.90
2023-10-01T08:14:07.149Z,27.80
2023-10-01T08:16:48.957Z,28.20
2023-10-01T08:19:21.960Z,28.30
2023-10-01T08:21:55.045Z,26.90
2023-10-01T08:24:34.822Z,26.40
2023-10-01T08:27:05.699Z,25.90
2023-10-01T08:29:54.745Z,25.40
2023-10-01T08:32:23.880Z,25.30
2023-10-01T08:35:02.780Z,24.80
2023-10-01T08:37:33.091Z,25.10
2023-10-01T08:40:01.513Z,25.20
2023-10-01T08:42:31.298Z,25.40
2023-10-01T08:45:05.060Z,25.40
2023-10-01T08:47:36.316Z,25.80
2023-10-01T08:50:28.784Z,26.00
2023-10-01T08:53:04.540Z,26.30
2023-10-01T08:55:41.637Z,26.80
2023-10-01T08:58:17.173Z,26.90
2023-10-01T09:00:50.947Z,27.90
2023-10-01T09:03:30.902Z,28.40
2023-10-01T09:06:04.663Z,28.50
2023-10-01T09:08:43.862Z,27.90
2023-10-01T09:11:17.887Z,27.40
2023-10-01T09:13:59.473Z,27.30
2023-10-01T09:16:34.074Z,27.10
2023-10-01T09:19:26.771Z,26.70
2023-10-01T09:21:56.981Z,26.40
2023-10-01T09:24:40.203Z,26.00
2023-10-01T09:27:19.991Z,25.80
2023-10-01T09:29:59.267Z,24.60
2023-10-01T09:32:51.171Z,24.10
2023-10-01T09:35:32.036Z,23.30
2023-10-01T09:38:11.762Z,23.10
2023-10-01T09:40:46.475Z,22.90
2023-10-01T09:43:26.668Z,22.90
2023-10-01T09:45:58.488Z,22.80
2023-10-01T09:48:38.595Z,22.60
2023-10-01T09:51:15.312Z,22.50
2023-10-01T09:53:51.785Z,22.60
2023-10-01T09:56:30.981Z,22.30
2023-10-01T09:59:03.284Z,22.10
2023-10-01T10:01:37.824Z,22.40
2023-10-01T10:04:07.898Z,23.00
2023-10-01T10:06:37.338Z,24.10
2023-10-01T10:09:08.029Z,24.40
2023-10-01T10:11:41.594Z,24.20
2023-10-01T10:14:46.457Z,25.10
2023-10-01T10:17:21.229Z,25.00
2023-10-01T10:20:41.456Z,24.60
2023-10-01T10:23:30.755Z,23.50
2023-10-01T10:26:16.049Z,22.40
2023-10-01T10:29:12.199Z,21.70
2023-10-01T10:31:45.365Z,21.00
2023-10-01T10:34:27.493Z,20.80
2023-10-01T10:36:56.020Z,20.60
2023-10-01T10:40:23.888Z,20.20
2023-10-01T10:43:18.590Z,20.10
2023-10-01T10:46:02.505Z,20.10
2023-10-01T10:49:04.215Z,20.30
2023-10-01T10:51:54.116Z,20.70
2023-10-01T10:54:30.745Z,20.80
2023-10-01T10:56:59.669Z,21.20
2023-10-01T10:59:32.369Z,21.50
2023-10-01T11:02:02.170Z,21.50
2023-10-01T11:04:33.122Z,21.40
2023-10-01T11:07:06.137Z,21.30
2023-10-01T11:09:35.923Z,21.20
2023-10-01T11:12:20.582Z,21.20
2023-10-01T11:15:17.786Z,21.20
2023-10-01T11:17:49.040Z,21.20
2023-10-01T11:20:24.355Z,21.40
2023-10-01T11:22:56.114Z,21.80
2023-10-01T11:25:25.162Z,22.20
2023-10-01T11:28:06.437Z,22.60
2023-10-01T11:30:36.163Z,22.60
2023-10-01T11:33:30.566Z,23.00
2023-10-01T11:36:08.784Z,22.80
2023-10-01T11:38:40.645Z,22.60
2023-10-01T11:41:10.406Z,22.40
2023-10-01T11:43:40.627Z,22.40
2023-10-01T11:46:33.977Z,22.70
2023-10-01T11:49:17.635Z,22.80
2023-10-01T11:51:49.427Z,22.50
2023-10-01T11:54:19.200Z,22.60
2023-10-01T11:56:50.023Z,22.50
2023-10-01T11:59:21.536Z,22.40
2023-10-01T12:01:54.844Z,22.50
2023-10-01T12:04:42.853Z,22.40
2023-10-01T12:07:18.060Z,22.60
2023-10-01T12:09:49.626Z,22.60
2023-10-01T12:12:19.758Z,22.40
2023-10-01T12:14:55.193Z,22.70
2023-10-01T12:17:28.250Z,22.80
2023-10-01T12:20:00.971Z,23.00
2023-10-01T12:22:31.340Z,22.90
2023-10-01T12:25:02.372Z,23.00
2023-10-01T12:27:46.567Z,23.20
2023-10-01T12:30:31.640Z,23.10
2023-10-01T12:33:03.919Z,23.20
2023-10-01T12:35:36.147Z,23.20
2023-10-01T12:38:23.322Z,23.30
2023-10-01T12:40:55.288Z,23.40
2023-10-01T12:43:39.683Z,23.30
2023-10-01T12:46:15.291Z,22.90
2023-10-01T12:49:14.380Z,23.10
2023-10-01T12:51:49.766Z,23.10
2023-10-01T12:54:20.276Z,22.70
2023-10-01T12:57:04.077Z,22.80
2023-10-01T12:59:40.743Z,22.80
2023-10-01T13:02:23.748Z,22.80
2023-10-01T13:05:13.743Z,22.80
2023-10-01T13:07:43.279Z,23.00
2023-10-01T13:10:12.419Z,23.00
2023-10-01T13:12:41.347Z,23.10
2023-10-01T13:15:16.984Z,23.10
2023-10-01T13:17:57.753Z,23.00
2023-10-01T13:20:27.954Z,23.10
2023-10-01T13:23:07.941Z,23.00
2023-10-01T13:25:37.981Z,22.90
2023-10-01T13:28:06.991Z,22.70
2023-10-01T13:30:57.059Z,22.60
2023-10-01T13:33:27.248Z,22.50
2023-10-01T13:35:58.840Z,22.40
2023-10-01T13:38:29.188Z,22.50
2023-10-01T13:41:15.226Z,22.70
2023-10-01T13:44:01.221Z,22.70
2023-10-01T13:46:46.889Z,22.80
2023-10-01T13:49:32.856Z,22.80
2023-10-01T13:52:18.328Z,22.60
2023-10-01T13:55:05.345Z,22.40
2023-10-01T13:57:50.848Z,22.30
2023-10-01T14:00:36.359Z,22.20
2023-10-01T14:03:22.397Z,21.80
2023-10-01T14:06:07.775Z,21.70
2023-10-01T14:08:47.933Z,21.60
2023-10-01T14:11:27.744Z,21.60
2023-10-01T14:13:56.649Z,21.50
2023-10-01T14:16:25.408Z,21.30
2023-10-01T14:18:59.703Z,21.10
2023-10-01T14:21:29.877Z,21.10
2023-10-01T14:24:19.727Z,21.00
2023-10-01T14:26:52.410Z,21.10
2023-10-01T14:29:24.636Z,21.30
2023-10-01T14:31:53.626Z,21.40
2023-10-01T14:34:23.264Z,21.40
2023-10-01T14:36:55.881Z,21.30
2023-10-01T14:39:31.709Z,21.30
2023-10-01T14:42:01.867Z,21.10
2023-10-01T14:44:30.188Z,21.10
2023-10-01T14:46:59.490Z,21.00
2023-10-01T14:49:28.813Z,20.90
2023-10-01T14:51:58.410Z,20.70
2023-10-01T14:54:31.240Z,20.60
2023-10-01T14:57:01.590Z,20.50
2023-10-01T14:59:33.571Z,20.30
2023-10-01T15:02:03.946Z,20.00
2023-10-01T15:04:36.424Z,19.90
2023-10-01T15:07:07.124Z,19.90
2023-10-01T15:09:37.976Z,19.80
2023-10-01T15:12:15.818Z,19.70
2023-10-01T15:15:06.719Z,19.70
2023-10-01T15:17:41.033Z,19.60
2023-10-01T15:20:10.898Z,19.60
2023-10-01T15:22:45.212Z,19.70
2023-10-01T15:25:14.031Z,19.60
2023-10-01T15:27:43.703Z,19.60
2023-10-01T15:30:22.366Z,19.70
2023-10-01T15:33:01.425Z,19.60
2023-10-01T15:35:31.904Z,19.70
2023-10-01T15:38:00.454Z,19.70
2023-10-01T15:40:28.946Z,19.70
2023-10-01T15:42:59.359Z,19.70
2023-10-01T15:45:32.094Z,19.60
2023-10-01T15:48:08.924Z,19.50
2023-10-01T15:50:40.654Z,19.30
2023-10-01T15:53:19.218Z,19.10
2023-10-01T15:56:04.862Z,18.90
2023-10-01T15:58:34.525Z,18.70
2023-10-01T16:01:03.146Z,18.60
2023-10-01T16:03:32.207Z,18.40
2023-10-01T16:06:10.850Z,18.30
2023-10-01T16:08:44.330Z,18.10
2023-10-01T16:11:14.763Z,18.10
2023-10-01T16:13:55.753Z,18.00
2023-10-01T16:16:28.562Z,17.80
2023-10-01T16:19:01.516Z,17.80
2023-10-01T16:21:32.633Z,17.60
2023-10-01T16:24:01.122Z,17.40
2023-10-01T16:26:31.941Z,17.20
2023-10-01T16:29:08.394Z,17.10
2023-10-01T16:31:36.858Z,16.90
2023-10-01T16:34:07.989Z,16.80
2023-10-01T16:36:40.150Z,16.60
2023-10-01T16:39:18.397Z,16.40
2023-10-01T16:41:48.472Z,16.10
2023-10-01T16:44:18.002Z,15.90
2023-10-01T16:46:46.749Z,15.70
2023-10-01T16:49:17.056Z,15.50
2023-10-01T16:51:45.258Z,15.40
2023-10-01T16:54:16.640Z,15.20
2023-10-01T16:56:48.605Z,15.00
2023-10-01T16:59:22.958Z,14.80
2023-10-01T17:01:56.703Z,14.60
2023-10-01T17:04:28.535Z,14.50
2023-10-01T17:06:57.580Z,14.40
2023-10-01T17:09:34.365Z,14.20
2023-10-01T17:12:03.393Z,14.10
2023-10-01T17:14:33.343Z,14.00
2023-10-01T17:17:04.443Z,13.90
2023-10-01T17:19:35.078Z,13.80
2023-10-01T17:22:09.680Z,13.70
2023-10-01T17:24:45.234Z,13.50
2023-10-01T17:27:18.682Z,13.40
2023-10-01T17:29:49.670Z,13.30
2023-10-01T17:32:20.463Z,13.20
2023-10-01T17:34:49.432Z,13.10
2023-10-01T17:37:23.192Z,13.00
2023-10-01T17:39:57.260Z,12.90
2023-10-01T17:42:27.475Z,12.90
2023-10-01T17:44:58.009Z,12.80
2023-10-01T17:47:31.358Z,12.70
2023-10-01T17:50:03.192Z,12.60
2023-10-01T17:52:35.951Z,12.50
2023-10-01T17:56:01.506Z,12.40
2023-10-01T17:58:29.710Z,12.30
2023-10-01T18:00:59.269Z,12.20
2023-10-01T18:03:32.016Z,12.10
2023-10-01T18:06:07.400Z,12.00
2023-10-01T18:08:43.507Z,12.00
2023-10-01T18:11:15.396Z,11.90
2023-10-01T18:13:43.723Z,11.80
2023-10-01T18:16:24.738Z,11.80
2023-10-01T18:18:52.989Z,11.80
2023-10-01T18:21:24.153Z,11.70
2023-10-01T18:23:52.493Z,11.70
2023-10-01T18:26:20.640Z,11.70
2023-10-01T18:28:49.040Z,11.70
2023-10-01T18:31:18.984Z,11.70
2023-10-01T18:33:49.866Z,11.70
2023-10-01T18:36:20.754Z,11.70
2023-10-01T18:38:50.449Z,11.70
2023-10-01T18:41:21.969Z,11.70
2023-10-01T18:43:50.812Z,11.70
2023-10-01T18:46:24.005Z,11.60
2023-10-01T18:48:52.470Z,11.60
2023-10-01T18:51:20.578Z,11.60
2023-10-01T18:53:48.734Z,11.60
2023-10-01T18:56:16.878Z,11.60
2023-10-01T18:58:48.256Z,11.50
2023-10-01T19:01:20.193Z,11.50
2023-10-01T19:03:49.758Z,11.50
2023-10-01T19:06:19.886Z,11.50
2023-10-01T19:08:48.142Z,11.50
2023-10-01T19:11:16.306Z,11.50
2023-10-01T19:13:45.548Z,11.50
2023-10-01T19:16:13.821Z,11.50
2023-10-01T19:18:42.218Z,11.50
2023-10-01T19:21:11.690Z,11.50
2023-10-01T19:23:42.096Z,11.50
2023-10-01T19:26:10.424Z,11.60
2023-10-01T19:28:43.339Z,11.60
2023-10-01T19:31:13.389Z,11.60
2023-10-01T19:33:44.316Z,11.60
2023-10-01T19:36:14.851Z,11.60
2023-10-01T19:38:48.838Z,11.50
2023-10-01T19:41:19.940Z,11.50
2023-10-01T19:43:51.224Z,11.50
2023-10-01T19:46:19.768Z,11.40
2023-10-01T19:48:51.194Z,11.40
2023-10-01T19:51:24.162Z,11.30
2023-10-01T19:54:02.184Z,11.20
2023-10-01T19:56:30.928Z,11.20
2023-10-01T19:59:08.948Z,11.10
2023-10-01T20:01:41.062Z,11.10
2023-10-01T20:04:12.289Z,11.00
2023-10-01T20:06:46.718Z,10.90
2023-10-01T20:09:34.499Z,11.00
2023-10-01T20:12:03.234Z,11.00
2023-10-01T20:14:35.696Z,10.90
2023-10-01T20:17:05.183Z,10.90
2023-10-01T20:19:34.309Z,10.90
2023-10-01T20:22:18.697Z,11.00
2023-10-01T20:24:49.065Z,11.00
2023-10-01T20:27:17.171Z,11.00
2023-10-01T20:29:45.567Z,11.10
2023-10-01T20:32:14.711Z,11.10
2023-10-01T20:34:44.375Z,11.00
2023-10-01T20:37:14.099Z,11.10
2023-10-01T20:39:44.143Z,11.10
2023-10-01T20:42:17.268Z,11.20
2023-10-01T20:44:47.055Z,11.20
2023-10-01T20:47:22.970Z,11.10
2023-10-01T20:49:53.297Z,11.10
2023-10-01T20:52:31.429Z,11.10
2023-10-01T20:55:16.539Z,11.10
2023-10-01T20:57:45.576Z,11.10
2023-10-01T21:00:24.759Z,11.00
2023-10-01T21:02:59.325Z,10.90
2023-10-01T21:05:29.572Z,10.90
2023-10-01T21:08:13.856Z,10.80
2023-10-01T21:10:42.541Z,10.80
2023-10-01T21:13:12.148Z,10.80
2023-10-01T21:15:43.290Z,10.80
2023-10-01T21:18:13.227Z,10.80
2023-10-01T21:20:45.061Z,10.80
2023-10-01T21:23:15.853Z,10.70
2023-10-01T21:25:49.662Z,10.70
2023-10-01T21:28:20.826Z,10.70
2023-10-01T21:30:48.981Z,10.70
2023-10-01T21:33:18.570Z,10.60
2023-10-01T21:35:47.796Z,10.60
2023-10-01T21:38:23.360Z,10.60
2023-10-01T21:40:53.222Z,10.60
2023-10-01T21:43:21.322Z,10.60
2023-10-01T21:46:01.074Z,10.50
2023-10-01T21:48:30.724Z,10.50
2023-10-01T21:51:02.663Z,10.60
2023-10-01T21:53:35.992Z,10.50
2023-10-01T21:56:07.937Z,10.50
2023-10-01T21:58:38.723Z,10.50
2023-10-01T22:01:25.098Z,10.50
2023-10-01T22:03:54.351Z,10.50
2023-10-01T22:06:30.808Z,10.50
2023-10-01T22:09:05.540Z,10.50
2023-10-01T22:11:35.144Z,10.60
2023-10-01T22:14:07.102Z,10.60
2023-10-01T22:16:45.007Z,10.50
2023-10-01T22:19:14.359Z,10.50
2023-10-01T22:21:42.561Z,10.50
2023-10-01T22:24:21.556Z,10.50
2023-10-01T22:26:51.672Z,10.50
2023-10-01T22:29:22.165Z,10.50
2023-10-01T22:31:53.513Z,10.50
2023-10-01T22:34:26.840Z,10.40
2023-10-01T22:36:57.994Z,10.40
2023-10-01T22:39:36.733Z,10.30
2023-10-01T22:42:23.085Z,10.30
2023-10-01T22:44:59.071Z,10.20
2023-10-01T22:47:30.863Z,10.20
2023-10-01T22:50:01.359Z,10.20
2023-10-01T22:52:35.142Z,10.20
2023-10-01T22:55:08.410Z,10.20
2023-10-01T22:57:43.918Z,10.20
2023-10-01T23:00:19.318Z,10.30
2023-10-01T23:02:50.047Z,10.30
2023-10-01T23:05:18.832Z,10.30
2023-10-01T23:07:47.135Z,10.30
2023-10-01T23:10:26.997Z,10.30
2023-10-01T23:13:08.560Z,10.40
2023-10-01T23:15:41.674Z,10.30
2023-10-01T23:18:12.377Z,10.30
2023-10-01T23:20:54.581Z,10.30
2023-10-01T23:23:29.570Z,10.30
2023-10-01T23:26:05.644Z,10.20
2023-10-01T23:28:36.590Z,10.20
2023-10-01T23:31:11.416Z,10.10
2023-10-01T23:33:40.241Z,10.10
2023-10-01T23:36:11.533Z,10.00
2023-10-01T23:38:56.117Z,10.10
2023-10-01T23:41:46.564Z,10.00
2023-10-01T23:44:14.935Z,10.00
2023-10-01T23:46:43.330Z,9.90
2023-10-01T23:49:13.153Z,9.90
2023-10-01T23:51:55.019Z,9.80
2023-10-01T23:54:28.692Z,9.80
2023-10-01T23:57:01.614Z,9.70
2023-10-01T23:59:32.385Z,9.70
